LSME - Emmen, Switzerland
Distance from HB9FEE: SW 14km
Updated: Wed, 16-Jan-2019 11:50am CET
Clear
Clear
 Wind from varies
Wind: varies 4 km/h
Temperature: 4°C
Dew Point: -1°C
Humidity: 70%
Barometer: 1017 hPa
Summary: Clear
Visibility: greater than 10 km
2019/01/16 10:50 LSME 161050Z VRB02KT CAVOK 04/M01 Q1017 RMK BLU
LSZC - Buochs, Switzerland
Distance from HB9FEE: S 25km
Updated: Wed, 16-Jan-2019 11:50am CET
Clear
Clear
 Wind from varies
Wind: varies 4 km/h
Temperature: 2°C
Dew Point: -2°C
Humidity: 75%
Barometer: 1017 hPa
Summary: Clear
Visibility: greater than 10 km
2019/01/16 10:50 LSZC 161050Z VRB02KT CAVOK 02/M02 Q1017
 
LSMA - Alpnach, Switzerland
Distance from HB9FEE: SSW 29km
Updated: Wed, 16-Jan-2019 11:50am CET
Clear
Clear
 Wind from SSE
Wind: SSE 6 km/h
Temperature: 2°C
Dew Point: -2°C
Humidity: 75%
Barometer: 1017 hPa
Summary: Clear
Visibility: greater than 10 km
2019/01/16 10:50 LSMA 161050Z 16003KT 140V200 CAVOK 02/M02 Q1017 RMK BLU
LSMD - Dubendorf, Switzerland
Distance from HB9FEE: NE 29km
Updated: Wed, 16-Jan-2019 11:50am CET
Few Clouds
Few Clouds
 Wind from SE
Wind: SE 9 km/h
Temperature: 4°C
Wind Chill: 2°C
Dew Point: -2°C
Humidity: 65%
Barometer: 1016 hPa
Clouds: Few Clouds
Visibility: 10 km
Cloud details: Few Clouds 5182 m
2019/01/16 10:50 LSMD 161050Z 14005KT 110V190 9999 FEW170 04/M02 Q1016 RMK BLU+
 
LSZH - Zurich-Kloten (a, Switzerland
Distance from HB9FEE: NNE 33km
Updated: Wed, 16-Jan-2019 11:50am CET
Clear
Clear
 Wind from varies
Wind: varies 4 km/h
Temperature: 2°C
Dew Point: -1°C
Humidity: 81%
Barometer: 1016 hPa
Summary: Clear
Visibility: greater than 10 km
2019/01/16 10:50 LSZH 161050Z VRB02KT CAVOK 02/M01 Q1016 NOSIG
LSMM - Meiringen, Switzerland
Distance from HB9FEE: SSW 54km
Updated: Wed, 16-Jan-2019 11:50am CET
Clear
Clear
 Wind from ESE
Wind: ESE 2 km/h
Temperature: -6°C
Dew Point: -7°C
Humidity: 93%
Barometer: 1017 hPa
Summary: Clear
Visibility: greater than 10 km
2019/01/16 10:50 LSMM 161050Z 11001KT CAVOK M06/M07 Q1017 RMK BLU
 
LSZB - Bern/Belp, Switzerland
Distance from HB9FEE: WSW 76km
Updated: Wed, 16-Jan-2019 11:50am CET
Clear
Clear
 Wind from varies
Wind: varies 6 km/h
Temperature: 3°C
Dew Point: -1°C
Humidity: 75%
Barometer: 1016 hPa
Summary: Clear
Visibility: greater than 10 km
2019/01/16 10:50 LSZB 161050Z VRB03KT CAVOK 03/M01 Q1016 NOSIG
LSZG - Grenchen, Switzerland
Distance from HB9FEE: W 76km
Updated: Wed, 16-Jan-2019 11:50am CET
Mostly Cloudy
Mostly Cloudy
 Wind from WSW
Wind: WSW 7 km/h
Temperature: 0°C
Wind Chill: -3°C
Dew Point: 0°C
Humidity: 100%
Barometer: 1017 hPa
Clouds: Mostly Cloudy
Visibility: 6 km
Cloud details: Mostly Cloudy 274 m
2019/01/16 10:50 LSZG 161050Z 25004KT 6000 BKN009 00/M00 Q1017 NOSIG
 
LFSB - Bale/Mulhouse, France
Distance from HB9FEE: NW 82km
Updated: Wed, 16-Jan-2019 12:00pm CET
Clear
Clear
 Wind from SE
Wind: SE 11 km/h
Temperature: 4°C
Wind Chill: 1°C
Dew Point: 0°C
Humidity: 75%
Barometer: 1015 hPa
Summary: Clear
Visibility: greater than 10 km
2019/01/16 11:00 LFSB 161100Z 14006KT 110V170 CAVOK 04/M00 Q1015 NOSIG
LSZR - Rheineck/Altenrh, Switzerland
Distance from HB9FEE: ENE 92km
Updated: Wed, 16-Jan-2019 11:50am CET
Clear
Clear
 Wind from E
Wind: E 7 km/h
Temperature: 2°C
Wind Chill: 0°C
Dew Point: 0°C
Humidity: 87%
Barometer: 1016 hPa
Summary: Clear
Visibility: greater than 10 km
2019/01/16 10:50 LSZR 161050Z 09004KT CAVOK 02/M00 Q1016 NOSIG RMK G
 
LSZL - Locarno, Switzerland
Distance from HB9FEE: SSE 119km
Updated: Wed, 16-Jan-2019 11:50am CET
Clear
Clear
 Wind from varies
Wind: varies 4 km/h
Temperature: 4°C
Dew Point: -3°C
Humidity: 61%
Barometer: 1021 hPa
Summary: Clear
Visibility: greater than 10 km
2019/01/16 10:50 LSZL 161050Z VRB02KT CAVOK 04/M03 Q1021 RMK BLU
LSMP - Payerne (mil/Aut, Switzerland
Distance from HB9FEE: WSW 121km
Updated: Wed, 16-Jan-2019 11:20am CET
Few Clouds
Few Clouds
 Wind from calm
Wind: Calm
Temperature: 0°C
Dew Point: -2°C
Humidity: 87%
Barometer: 1017 hPa
Clouds: Few Clouds
Visibility: 10 km
Cloud details: Few Clouds 6401 m
2019/01/16 10:20 LSMP 161020Z 00000KT 9999 FEW210 00/M02 Q1017 RMK BLU+
 
LSGC - Les Eplatures, Switzerland
Distance from HB9FEE: W 123km
Updated: Wed, 16-Jan-2019 11:50am CET
Clear
Clear
 Wind from varies
Wind: varies 2 km/h
Temperature: 3°C
Dew Point: -3°C
Humidity: 65%
Barometer: 1014 hPa
Summary: Clear
Visibility: greater than 10 km
2019/01/16 10:50 LSGC 161050Z VRB01KT CAVOK 03/M03 Q1014
LSZS - Samedan, Switzerland
Distance from HB9FEE: ESE 133km
Updated: Wed, 16-Jan-2019 11:50am CET
Clear
Clear
 Wind from calm
Wind: Calm
Temperature: -9°C
Dew Point: -10°C
Humidity: 93%
Barometer: 1016 hPa
Summary: Clear
Visibility: greater than 10 km
2019/01/16 10:50 LSZS 161050Z 00000KT CAVOK M09/M10 Q1016 R03/910195 RMK I
 
LSGS - Sion (mil/Civ/Au, Switzerland
Distance from HB9FEE: SW 137km
Updated: Wed, 16-Jan-2019 11:50am CET
Clear
Clear
 Wind from E
Wind: E 9 km/h
Temperature: 2°C
Wind Chill: -1°C
Dew Point: -4°C
Humidity: 65%
Barometer: 1018 hPa
Summary: Clear
Visibility: greater than 10 km
2019/01/16 10:50 LSGS 161050Z 09005KT CAVOK 02/M04 Q1018
LSZA - Lugano (pvt/Aut), Switzerland
Distance from HB9FEE: SSE 138km
Updated: Wed, 16-Jan-2019 11:50am CET
Few Clouds
Few Clouds
 Wind from varies
Wind: varies 4 km/h
Temperature: 7°C
Dew Point: -4°C
Humidity: 46%
Barometer: 1020 hPa
Clouds: Few Clouds
Visibility: 10 km
Cloud details: Few Clouds 1524 m
2019/01/16 10:50 LSZA 161050Z VRB02KT 9999 FEW050 07/M04 Q1020 NOSIG